Cahone, CO (81320)

7:50 PM MDT on May 26, 2015 (GMT -0600)
Cahone (2.5 Miles NNE) | | Change Station
CLOSE
Current Station
Personal Weather Station
Location: Cahone, CO
Elevation: 6870 ft
Nearby Weather Stations

Elev 6870 ft 37.69 °N, 108.80 °W | Updated 16 seconds ago

Overcast
Overcast
58.3 °F
Feels Like 58.3 °F
N
0.0
Wind Variable Wind from ENE
Gusts 0.0 mph

Today
High -- | Low -- °F
--% Chance of Precip.
Yesterday
High -- | Low -- °F
Precip. -- in
5:57 AM 8:26 PM
Waxing Gibbous, 63% visible
Pressure 29.95 in
Visibility 10.0 miles
Clouds Few 7500 ft
Dew Point 38 °F
Humidity 47%
Rainfall 0.00 in
Snow Depth Not available.
UV 1 out of 12
Pollen 5.60 out of 12
Air Quality Not available.
Flu Activity Sporadic
METAR KCEZ 270053Z AUTO 09006KT 10SM FEW075 19/05 A3008 RMK AO2 LTG DSNT SW SLP140 T01890050

More Conditions Fewer Conditions

Pressure 29.95 in
Visibility 10.0 miles
Clouds Few 7500 ft
Dew Point 38 °F
Humidity 47%
Rainfall 0.00 in
Snow Depth Not available.
UV 1 out of 12
Pollen 5.60 out of 12
Air Quality Not available.
Flu Activity Sporadic
METAR KCEZ 270053Z AUTO 09006KT 10SM FEW075 19/05 A3008 RMK AO2 LTG DSNT SW SLP140 T01890050

More Conditions Fewer Conditions

10-Day Weather Forecast

Almanac

Astronomy

May. 26, 2015 Rise Set
Actual Time
Civil Twilight
Nautical Twilight
Astronomical Twilight
Moon
Length of Visible Light
Length of Day
Tomorrow will be .
, % of the Moon is Illuminated

Today's Extremes

State Highs State Lows

Community

WunderPhotos

Upload Photos

1,824,549 photos uploaded!

WunderBlogs® & News

Nearby

Air Quality

  Air Quality AQ Index Pollutant
Not available.

Snow Depth

Station Depth Elevation

Earthquake Activity

City Distance Mag. Time & Date
Minimum magnitude displayed is 2.5.

Coastal Water Temperatures

Place Temperature

Stations

Nearby Weather Stations

Station Location Temp. Windchill Dew Point Humidity Wind Precip. Elev Updated Type